createdAt,value
2022-10-14T00:01:45.025Z,31.90
2022-10-14T00:04:16.608Z,32.38
2022-10-14T00:06:44.911Z,32.53
2022-10-14T00:09:15.820Z,33.90
2022-10-14T00:11:44.108Z,35.00
2022-10-14T00:14:16.613Z,35.40
2022-10-14T00:16:47.216Z,35.58
2022-10-14T00:19:16.342Z,32.78
2022-10-14T00:21:45.568Z,36.47
2022-10-14T00:24:17.276Z,37.45
2022-10-14T00:26:46.572Z,36.05
2022-10-14T00:29:19.124Z,33.58
2022-10-14T00:31:48.484Z,34.83
2022-10-14T00:34:17.968Z,34.70
2022-10-14T00:36:46.684Z,34.47
2022-10-14T00:39:20.332Z,33.30
2022-10-14T00:41:52.357Z,34.88
2022-10-14T00:44:20.558Z,32.22
2022-10-14T00:46:50.828Z,32.75
2022-10-14T00:49:23.792Z,33.13
2022-10-14T00:52:06.000Z,33.97
2022-10-14T00:54:40.462Z,32.67
2022-10-14T00:57:10.335Z,32.97
2022-10-14T00:59:39.349Z,36.00
2022-10-14T01:02:08.054Z,36.03
2022-10-14T01:04:39.945Z,36.08
2022-10-14T01:07:26.263Z,36.70
2022-10-14T01:10:09.848Z,34.75
2022-10-14T01:13:40.750Z,33.22
2022-10-14T01:16:25.267Z,35.83
2022-10-14T01:19:05.683Z,35.60
2022-10-14T01:21:43.254Z,34.63
2022-10-14T01:24:42.321Z,34.50
2022-10-14T01:27:23.576Z,31.98
2022-10-14T01:30:01.126Z,35.63
2022-10-14T01:32:35.323Z,33.85
2022-10-14T01:35:23.864Z,33.17
2022-10-14T01:38:00.017Z,36.42
2022-10-14T01:40:39.610Z,37.22
2022-10-14T01:43:09.769Z,42.22
2022-10-14T01:45:42.893Z,42.15
2022-10-14T01:48:18.332Z,40.40
2022-10-14T01:50:50.830Z,40.83
2022-10-14T01:53:25.236Z,44.28
2022-10-14T01:55:56.540Z,44.85
2022-10-14T01:58:28.045Z,40.17
2022-10-14T02:00:56.546Z,35.13
2022-10-14T02:03:25.951Z,34.58
2022-10-14T02:06:08.999Z,33.38
2022-10-14T02:09:15.497Z,32.28
2022-10-14T02:12:13.443Z,31.33
2022-10-14T02:14:57.718Z,32.40
2022-10-14T02:17:54.636Z,33.15
2022-10-14T02:20:46.086Z,34.20
2022-10-14T02:23:20.546Z,38.38
2022-10-14T02:25:50.318Z,41.17
2022-10-14T02:28:22.190Z,45.45
2022-10-14T02:33:23.036Z,45.92
2022-10-14T02:35:53.391Z,45.93
2022-10-14T02:38:22.221Z,42.95
2022-10-14T02:40:54.192Z,42.10
2022-10-14T02:43:22.552Z,39.63
2022-10-14T02:46:00.782Z,39.00
2022-10-14T02:48:29.372Z,38.92
2022-10-14T02:50:57.680Z,39.10
2022-10-14T02:53:26.824Z,38.03
2022-10-14T02:55:55.308Z,34.78
2022-10-14T02:58:23.848Z,33.80
2022-10-14T03:01:17.076Z,34.22
2022-10-14T03:03:45.691Z,33.10
2022-10-14T03:06:14.504Z,34.08
2022-10-14T03:08:45.379Z,33.72
2022-10-14T03:11:13.729Z,32.50
2022-10-14T03:13:42.487Z,33.25
2022-10-14T03:16:11.860Z,33.58
2022-10-14T03:18:44.743Z,33.05
2022-10-14T03:21:33.130Z,32.53
2022-10-14T03:24:02.845Z,34.58
2022-10-14T03:26:35.648Z,33.63
2022-10-14T03:29:04.130Z,33.63
2022-10-14T03:31:51.581Z,34.15
2022-10-14T03:34:27.439Z,35.20
2022-10-14T03:37:05.429Z,40.25
2022-10-14T03:39:37.302Z,39.97
2022-10-14T03:42:08.292Z,38.75
2022-10-14T03:44:44.865Z,37.10
2022-10-14T03:47:36.225Z,35.47
2022-10-14T03:50:06.934Z,34.90
2022-10-14T03:52:53.353Z,34.78
2022-10-14T03:55:35.053Z,35.28
2022-10-14T03:58:18.041Z,36.15
2022-10-14T04:00:51.934Z,36.28
2022-10-14T04:03:55.889Z,35.95
2022-10-14T04:06:24.386Z,34.25
2022-10-14T04:08:58.025Z,35.13
2022-10-14T04:11:35.483Z,35.95
2022-10-14T04:14:10.618Z,37.03
2022-10-14T04:16:49.804Z,36.65
2022-10-14T04:19:31.325Z,36.30
2022-10-14T04:22:01.245Z,37.92
2022-10-14T04:24:30.643Z,40.05
2022-10-14T04:27:01.997Z,38.15
2022-10-14T04:29:40.044Z,41.15
2022-10-14T04:32:17.457Z,42.85
2022-10-14T04:34:53.787Z,45.45
2022-10-14T04:37:26.430Z,44.85
2022-10-14T04:40:26.233Z,43.00
2022-10-14T04:45:34.269Z,42.95
2022-10-14T04:48:05.442Z,39.15
2022-10-14T04:50:39.482Z,38.42
2022-10-14T04:53:37.027Z,44.90
2022-10-14T04:56:14.972Z,47.17
2022-10-14T04:58:54.574Z,42.78
2022-10-14T05:01:33.912Z,38.00
2022-10-14T05:06:33.982Z,35.63
2022-10-14T05:09:05.885Z,35.55
2022-10-14T05:11:36.894Z,39.13
2022-10-14T05:14:06.313Z,39.65
2022-10-14T05:16:36.699Z,42.03
2022-10-14T05:19:06.317Z,53.67
2022-10-14T05:21:39.065Z,55.72
2022-10-14T05:24:22.091Z,55.03
2022-10-14T05:26:50.437Z,53.03
2022-10-14T05:29:19.472Z,50.17
2022-10-14T05:31:50.401Z,48.93
2022-10-14T05:34:41.918Z,48.73
2022-10-14T05:37:13.999Z,49.53
2022-10-14T05:39:52.650Z,47.85
2022-10-14T05:42:25.238Z,45.88
2022-10-14T05:44:57.087Z,40.75
2022-10-14T05:47:26.624Z,42.67
2022-10-14T05:50:24.117Z,39.80
2022-10-14T05:52:52.719Z,38.05
2022-10-14T05:55:28.792Z,38.70
2022-10-14T05:58:00.499Z,38.28
2022-10-14T06:00:35.358Z,39.20
2022-10-14T06:03:13.263Z,42.22
2022-10-14T06:05:42.686Z,42.97
2022-10-14T06:08:11.292Z,45.00
2022-10-14T06:10:40.352Z,45.97
2022-10-14T06:13:08.767Z,57.92
2022-10-14T06:15:40.042Z,49.57
2022-10-14T06:18:08.633Z,43.53
2022-10-14T06:20:37.174Z,43.20
2022-10-14T06:23:06.080Z,39.53
2022-10-14T06:25:34.474Z,38.70
2022-10-14T06:28:06.201Z,37.38
2022-10-14T06:30:34.789Z,37.40
2022-10-14T06:33:03.261Z,36.92
2022-10-14T06:35:32.412Z,41.08
2022-10-14T06:38:01.116Z,40.42
2022-10-14T06:40:29.592Z,40.75
2022-10-14T06:42:59.777Z,39.45
2022-10-14T06:45:28.817Z,40.78
2022-10-14T06:47:57.916Z,38.78
2022-10-14T06:50:26.936Z,38.90
2022-10-14T06:52:55.556Z,40.45
2022-10-14T06:55:24.517Z,41.60
2022-10-14T06:57:52.861Z,42.78
2022-10-14T07:00:21.553Z,44.65
2022-10-14T07:02:50.215Z,44.08
2022-10-14T07:05:18.985Z,46.95
2022-10-14T07:07:47.912Z,43.10
2022-10-14T07:10:16.368Z,42.30
2022-10-14T07:12:45.134Z,40.35
2022-10-14T07:15:13.685Z,40.53
2022-10-14T07:17:42.225Z,42.22
2022-10-14T07:20:12.323Z,41.15
2022-10-14T07:22:43.289Z,40.63
2022-10-14T07:25:13.007Z,41.28
2022-10-14T07:27:41.935Z,42.78
2022-10-14T07:30:13.816Z,42.67
2022-10-14T07:32:45.482Z,39.38
2022-10-14T07:35:16.811Z,41.10
2022-10-14T07:37:46.014Z,39.20
2022-10-14T07:40:15.800Z,40.42
2022-10-14T07:42:44.367Z,38.10
2022-10-14T07:45:18.723Z,36.85
2022-10-14T07:47:51.220Z,38.15
2022-10-14T07:50:20.353Z,38.08
2022-10-14T07:52:48.999Z,38.03
2022-10-14T07:55:17.786Z,41.40
2022-10-14T07:57:46.133Z,37.10
2022-10-14T08:00:20.304Z,39.45
2022-10-14T08:02:48.786Z,38.25
2022-10-14T08:07:59.841Z,37.97
2022-10-14T08:10:28.340Z,39.78
2022-10-14T08:12:57.976Z,37.40
2022-10-14T08:15:28.982Z,38.72
2022-10-14T08:17:57.420Z,38.17
2022-10-14T08:20:26.466Z,38.33
2022-10-14T08:22:56.156Z,37.40
2022-10-14T08:25:24.743Z,36.53
2022-10-14T08:27:54.700Z,34.33
2022-10-14T08:30:23.320Z,35.85
2022-10-14T08:32:51.958Z,36.10
2022-10-14T08:35:20.401Z,35.33
2022-10-14T08:38:00.242Z,36.22
2022-10-14T08:40:33.774Z,35.70
2022-10-14T08:43:16.326Z,36.40
2022-10-14T08:45:55.154Z,34.13
2022-10-14T08:48:26.567Z,35.33
2022-10-14T08:51:03.457Z,34.90
2022-10-14T08:53:45.292Z,35.03
2022-10-14T08:56:15.172Z,35.67
2022-10-14T08:58:54.693Z,35.33
2022-10-14T09:01:34.644Z,33.88
2022-10-14T09:04:06.460Z,34.55
2022-10-14T09:06:38.880Z,35.92
2022-10-14T09:09:30.769Z,35.13
2022-10-14T09:12:03.225Z,36.23
2022-10-14T09:14:42.851Z,35.05
2022-10-14T09:17:22.452Z,34.83
2022-10-14T09:19:58.695Z,34.10
2022-10-14T09:22:28.292Z,35.63
2022-10-14T09:24:58.919Z,35.50
2022-10-14T09:27:29.387Z,34.40
2022-10-14T09:30:04.868Z,33.63
2022-10-14T09:32:49.582Z,34.85
2022-10-14T09:35:41.825Z,33.50
2022-10-14T09:38:12.790Z,34.22
2022-10-14T09:40:45.571Z,33.33
2022-10-14T09:43:19.554Z,34.22
2022-10-14T09:45:51.073Z,33.95
2022-10-14T09:48:34.396Z,33.22
2022-10-14T09:51:08.360Z,33.53
2022-10-14T09:53:47.439Z,35.13
2022-10-14T09:56:18.924Z,33.90
2022-10-14T09:58:53.709Z,33.47
2022-10-14T10:01:23.928Z,33.50
2022-10-14T10:03:55.001Z,33.15
2022-10-14T10:06:27.548Z,33.63
2022-10-14T10:09:20.372Z,33.25
2022-10-14T10:11:49.028Z,33.30
2022-10-14T10:14:35.416Z,32.35
2022-10-14T10:17:36.092Z,32.90
2022-10-14T10:20:28.579Z,31.65
2022-10-14T10:22:59.193Z,30.85
2022-10-14T10:25:28.757Z,29.52
2022-10-14T10:28:00.120Z,29.50
2022-10-14T10:33:30.736Z,29.25
2022-10-14T10:39:11.168Z,28.95
2022-10-14T10:41:51.746Z,28.98
2022-10-14T10:44:49.029Z,28.77
2022-10-14T10:47:35.380Z,27.48
2022-10-14T10:51:01.174Z,27.17
2022-10-14T10:56:57.862Z,27.42
2022-10-14T11:00:06.088Z,26.05
2022-10-14T11:02:57.192Z,24.95
2022-10-14T11:05:37.845Z,22.95
2022-10-14T11:08:58.901Z,23.23
2022-10-14T11:12:03.924Z,24.25
2022-10-14T11:14:57.863Z,22.77
2022-10-14T11:17:45.256Z,23.00
2022-10-14T11:20:37.291Z,23.85
2022-10-14T11:23:36.621Z,25.15
2022-10-14T11:29:22.891Z,23.13
2022-10-14T11:32:22.701Z,22.92
2022-10-14T11:35:13.063Z,23.05
2022-10-14T11:38:19.448Z,21.90
2022-10-14T11:40:59.641Z,23.05
2022-10-14T11:43:50.807Z,23.15
2022-10-14T11:46:27.761Z,21.90
2022-10-14T11:49:05.610Z,22.05
2022-10-14T11:52:20.419Z,20.92
2022-10-14T11:54:58.976Z,20.05
2022-10-14T11:57:38.553Z,20.52
2022-10-14T12:00:14.214Z,21.27
2022-10-14T12:03:05.673Z,20.55
2022-10-14T12:05:55.706Z,21.15
2022-10-14T12:08:36.771Z,19.10
2022-10-14T12:11:07.447Z,20.65
2022-10-14T12:13:48.945Z,21.48
2022-10-14T12:16:20.145Z,20.83
2022-10-14T12:18:54.406Z,24.58
2022-10-14T12:21:50.927Z,21.42
2022-10-14T12:24:22.071Z,20.27
2022-10-14T12:26:52.495Z,20.55
2022-10-14T12:29:25.179Z,19.77
2022-10-14T12:32:17.592Z,19.60
2022-10-14T12:34:53.909Z,19.00
2022-10-14T12:37:28.961Z,17.98
2022-10-14T12:40:03.522Z,19.83
2022-10-14T12:42:35.536Z,19.10
2022-10-14T12:45:16.220Z,19.58
2022-10-14T12:47:45.089Z,17.95
2022-10-14T12:50:18.930Z,19.15
2022-10-14T12:52:58.055Z,19.23
2022-10-14T12:55:35.460Z,18.90
2022-10-14T12:58:06.881Z,17.90
2022-10-14T13:00:44.617Z,17.95
2022-10-14T13:03:42.911Z,18.13
2022-10-14T13:06:39.362Z,17.25
2022-10-14T13:09:16.518Z,17.90
2022-10-14T13:12:06.238Z,17.35
2022-10-14T13:15:00.960Z,16.65
2022-10-14T13:17:31.337Z,17.58
2022-10-14T13:19:59.825Z,17.25
2022-10-14T13:22:31.569Z,17.45
2022-10-14T13:25:19.233Z,16.33
2022-10-14T13:28:05.835Z,16.88
2022-10-14T13:30:40.776Z,17.80
2022-10-14T13:33:21.142Z,16.98
2022-10-14T13:36:09.993Z,16.08
2022-10-14T13:38:42.327Z,16.13
2022-10-14T13:41:18.989Z,16.02
2022-10-14T13:43:47.331Z,15.27
2022-10-14T13:46:17.659Z,15.10
2022-10-14T13:48:48.954Z,15.15
2022-10-14T13:51:44.162Z,14.32
2022-10-14T13:54:24.563Z,14.18
2022-10-14T13:57:47.830Z,14.80
2022-10-14T14:00:43.344Z,13.68
2022-10-14T14:03:21.264Z,15.85
2022-10-14T14:05:50.505Z,13.45
2022-10-14T14:08:39.885Z,13.68
2022-10-14T14:11:37.672Z,14.23
2022-10-14T14:14:43.424Z,14.10
2022-10-14T14:17:18.789Z,13.93
2022-10-14T14:19:51.404Z,13.73
2022-10-14T14:22:31.729Z,13.88
2022-10-14T14:25:35.843Z,14.13
2022-10-14T14:28:15.598Z,14.82
2022-10-14T14:30:55.192Z,12.43
2022-10-14T14:33:32.895Z,13.60
2022-10-14T14:36:05.321Z,14.23
2022-10-14T14:38:37.373Z,13.18
2022-10-14T14:41:21.393Z,14.13
2022-10-14T14:44:07.656Z,13.68
2022-10-14T14:46:43.194Z,15.07
2022-10-14T14:49:25.630Z,13.52
2022-10-14T14:51:54.839Z,12.38
2022-10-14T14:54:23.955Z,13.18
2022-10-14T14:56:57.720Z,13.32
2022-10-14T14:59:37.185Z,16.98
2022-10-14T15:02:17.238Z,15.35
2022-10-14T15:05:10.891Z,15.82
2022-10-14T15:07:43.611Z,20.77
2022-10-14T15:10:28.723Z,19.42
2022-10-14T15:12:59.827Z,32.65
2022-10-14T15:15:32.837Z,27.15
2022-10-14T15:19:09.974Z,24.60
2022-10-14T15:22:29.925Z,25.05
2022-10-14T15:25:17.813Z,25.40
2022-10-14T15:27:57.352Z,31.67
2022-10-14T15:34:22.918Z,21.00
2022-10-14T15:36:52.700Z,20.13
2022-10-14T15:40:02.477Z,20.20
2022-10-14T15:42:31.391Z,20.13
2022-10-14T15:45:16.513Z,20.83
2022-10-14T15:47:54.186Z,20.55
2022-10-14T15:50:26.078Z,20.45
2022-10-14T15:52:57.098Z,20.83
2022-10-14T15:55:30.111Z,23.55
2022-10-14T15:57:59.562Z,26.63
2022-10-14T16:00:28.232Z,25.20
2022-10-14T16:02:58.880Z,25.63
2022-10-14T16:05:31.179Z,25.17
2022-10-14T16:07:59.766Z,27.15
2022-10-14T16:10:32.046Z,31.25
2022-10-14T16:13:03.366Z,35.58
2022-10-14T16:15:49.844Z,37.22
2022-10-14T16:18:22.607Z,33.38
2022-10-14T16:20:53.179Z,32.70
2022-10-14T16:23:28.377Z,29.30
2022-10-14T16:26:01.363Z,27.45
2022-10-14T16:28:30.206Z,26.17
2022-10-14T16:30:59.853Z,25.20
2022-10-14T16:33:28.778Z,23.23
2022-10-14T16:36:00.331Z,21.15
2022-10-14T16:38:28.696Z,21.92
2022-10-14T16:41:03.431Z,22.02
2022-10-14T16:43:32.174Z,22.92
2022-10-14T16:46:11.709Z,23.75
2022-10-14T16:48:47.969Z,22.10
2022-10-14T16:51:16.574Z,21.95
2022-10-14T16:53:46.256Z,22.05
2022-10-14T16:56:35.020Z,22.75
2022-10-14T16:59:10.304Z,21.83
2022-10-14T17:01:39.542Z,21.65
2022-10-14T17:04:26.356Z,22.30
2022-10-14T17:07:18.070Z,23.23
2022-10-14T17:09:49.504Z,23.35
2022-10-14T17:12:17.797Z,23.10
2022-10-14T17:14:46.456Z,25.85
2022-10-14T17:17:14.916Z,23.90
2022-10-14T17:19:43.372Z,22.33
2022-10-14T17:22:12.333Z,22.00
2022-10-14T17:24:40.879Z,23.63
2022-10-14T17:27:10.912Z,26.33
2022-10-14T17:29:39.482Z,27.10
2022-10-14T17:32:08.121Z,26.55
2022-10-14T17:34:36.688Z,25.77
2022-10-14T17:37:05.633Z,26.23
2022-10-14T17:39:34.909Z,26.80
2022-10-14T17:42:08.115Z,27.63
2022-10-14T17:44:43.438Z,28.15
2022-10-14T17:47:12.101Z,29.35
2022-10-14T17:49:43.263Z,27.17
2022-10-14T17:52:12.133Z,28.08
2022-10-14T17:54:40.562Z,32.10
2022-10-14T17:57:09.120Z,38.83
2022-10-14T17:59:37.410Z,44.15
2022-10-14T18:02:06.204Z,52.40
2022-10-14T18:04:34.672Z,62.42
2022-10-14T18:07:03.048Z,73.65
2022-10-14T18:09:31.451Z,77.97
2022-10-14T18:12:08.667Z,67.70
2022-10-14T18:14:38.523Z,60.25
2022-10-14T18:17:07.577Z,56.30
2022-10-14T18:19:37.301Z,60.72
2022-10-14T18:23:20.967Z,68.07
2022-10-14T18:25:49.420Z,61.08
2022-10-14T18:32:45.520Z,46.28
2022-10-14T18:35:15.194Z,45.63
2022-10-14T18:37:46.073Z,44.42
2022-10-14T18:40:41.273Z,47.08
2022-10-14T18:46:44.092Z,52.63
2022-10-14T18:49:12.754Z,57.70
2022-10-14T18:51:41.417Z,61.75
2022-10-14T18:57:09.550Z,56.47
2022-10-14T19:02:21.172Z,68.82
2022-10-14T19:04:49.951Z,81.25
2022-10-14T19:07:18.699Z,83.95
2022-10-14T19:09:49.683Z,82.50
2022-10-14T19:12:38.611Z,91.82
2022-10-14T19:15:07.937Z,86.85
2022-10-14T19:17:39.285Z,88.68
2022-10-14T19:20:08.579Z,94.97
2022-10-14T19:22:40.911Z,87.45
2022-10-14T19:25:09.834Z,92.95
2022-10-14T19:27:38.117Z,130.45
2022-10-14T19:30:32.580Z,128.27
2022-10-14T19:33:01.121Z,105.03
2022-10-14T19:35:29.549Z,103.68
2022-10-14T19:37:59.160Z,102.07
2022-10-14T19:40:28.604Z,97.70
2022-10-14T19:42:56.970Z,92.65
2022-10-14T19:45:25.608Z,100.78
2022-10-14T19:47:54.196Z,92.68
2022-10-14T19:50:22.618Z,88.20
2022-10-14T19:52:51.052Z,86.07
2022-10-14T19:55:19.907Z,92.55
2022-10-14T19:57:48.365Z,91.65
2022-10-14T20:00:18.899Z,98.05
2022-10-14T20:02:48.848Z,102.18
2022-10-14T20:05:18.986Z,102.93
2022-10-14T20:07:47.393Z,99.80
2022-10-14T20:10:16.024Z,94.28
2022-10-14T20:12:44.905Z,89.13
2022-10-14T20:15:38.480Z,87.60
2022-10-14T20:18:32.665Z,89.20
2022-10-14T20:21:05.328Z,94.25
2022-10-14T20:24:00.034Z,171.32
2022-10-14T20:26:28.806Z,125.13
2022-10-14T20:28:57.402Z,123.82
2022-10-14T20:31:51.347Z,92.75
2022-10-14T20:34:49.698Z,83.10
2022-10-14T20:37:18.205Z,86.53
2022-10-14T20:40:13.430Z,89.75
2022-10-14T20:42:42.088Z,90.03
2022-10-14T20:46:07.489Z,92.22
2022-10-14T20:48:37.673Z,73.15
2022-10-14T20:51:18.101Z,63.58
2022-10-14T20:53:50.168Z,61.20
2022-10-14T20:56:18.721Z,56.92
2022-10-14T20:58:47.404Z,56.38
2022-10-14T21:01:17.656Z,54.28
2022-10-14T21:03:47.742Z,54.28
2022-10-14T21:06:19.781Z,57.53
2022-10-14T21:08:51.082Z,55.30
2022-10-14T21:11:45.153Z,54.73
2022-10-14T21:14:13.734Z,55.08
2022-10-14T21:16:44.495Z,58.92
2022-10-14T21:19:14.769Z,60.37
2022-10-14T21:21:47.074Z,58.38
2022-10-14T21:24:20.379Z,59.05
2022-10-14T21:26:50.937Z,61.05
2022-10-14T21:29:23.284Z,54.90
2022-10-14T21:31:52.378Z,53.53
2022-10-14T21:34:20.956Z,50.33
2022-10-14T21:36:49.371Z,52.72
2022-10-14T21:39:21.127Z,51.80
2022-10-14T21:41:49.753Z,49.70
2022-10-14T21:44:20.477Z,51.40
2022-10-14T21:46:48.963Z,53.17
2022-10-14T21:49:17.821Z,53.33
2022-10-14T21:51:46.303Z,54.15
2022-10-14T21:54:14.789Z,54.15
2022-10-14T21:56:43.486Z,56.35
2022-10-14T21:59:12.657Z,52.67
2022-10-14T22:01:42.112Z,51.20
2022-10-14T22:04:38.209Z,48.83
2022-10-14T22:07:07.227Z,47.70
2022-10-14T22:10:42.198Z,49.15
2022-10-14T22:13:12.077Z,47.53
2022-10-14T22:15:43.893Z,52.35
2022-10-14T22:18:12.358Z,53.60
2022-10-14T22:23:54.309Z,58.63
2022-10-14T22:26:34.631Z,61.35
2022-10-14T22:29:06.972Z,53.72
2022-10-14T22:31:39.046Z,50.53
2022-10-14T22:34:09.856Z,49.10
2022-10-14T22:36:39.026Z,47.55
2022-10-14T22:39:11.196Z,47.83
2022-10-14T22:41:39.833Z,46.00
2022-10-14T22:44:09.266Z,44.30
2022-10-14T22:46:39.142Z,44.67
2022-10-14T22:49:08.983Z,44.47
2022-10-14T22:51:42.796Z,43.67
2022-10-14T22:54:11.382Z,42.20
2022-10-14T22:56:42.932Z,42.50
2022-10-14T22:59:12.090Z,42.67
2022-10-14T23:01:43.201Z,40.80
2022-10-14T23:04:12.067Z,41.42
2022-10-14T23:07:07.087Z,59.75
2022-10-14T23:09:38.862Z,48.72
2022-10-14T23:12:07.562Z,47.45
2022-10-14T23:15:01.593Z,46.22
2022-10-14T23:20:22.330Z,46.67
2022-10-14T23:22:50.841Z,46.33
2022-10-14T23:25:19.709Z,46.88
2022-10-14T23:27:48.055Z,45.65
2022-10-14T23:30:42.429Z,42.75
2022-10-14T23:33:11.960Z,45.05
2022-10-14T23:35:40.768Z,43.22
2022-10-14T23:38:14.016Z,44.53
2022-10-14T23:40:42.899Z,46.45
2022-10-14T23:43:11.542Z,47.67
2022-10-14T23:45:39.992Z,46.63
2022-10-14T23:48:08.676Z,50.45
2022-10-14T23:51:28.080Z,48.97
2022-10-14T23:53:56.563Z,45.55
2022-10-14T23:56:24.829Z,44.30
2022-10-14T23:59:18.817Z,43.67
